createdAt,value
2023-02-19T00:01:22.076Z,73.44
2023-02-19T00:04:25.497Z,73.48
2023-02-19T00:07:28.767Z,73.54
2023-02-19T00:10:32.047Z,73.49
2023-02-19T00:13:44.167Z,73.43
2023-02-19T00:16:49.525Z,73.30
2023-02-19T00:19:52.926Z,73.13
2023-02-19T00:22:56.214Z,73.17
2023-02-19T00:26:17.612Z,72.94
2023-02-19T00:29:22.790Z,73.16
2023-02-19T00:32:26.774Z,73.15
2023-02-19T00:35:30.120Z,72.99
2023-02-19T00:38:37.209Z,72.98
2023-02-19T00:41:40.534Z,72.80
2023-02-19T00:44:43.908Z,72.86
2023-02-19T00:47:48.680Z,72.97
2023-02-19T00:50:51.968Z,72.92
2023-02-19T00:53:56.216Z,72.94
2023-02-19T00:57:00.718Z,73.03
2023-02-19T01:00:05.070Z,73.04
2023-02-19T01:03:08.458Z,73.09
2023-02-19T01:06:15.045Z,73.10
2023-02-19T01:09:18.261Z,72.99
2023-02-19T01:12:21.627Z,72.92
2023-02-19T01:15:25.334Z,73.00
2023-02-19T01:18:28.568Z,72.90
2023-02-19T01:21:32.143Z,73.06
2023-02-19T01:24:35.687Z,72.95
2023-02-19T01:27:38.824Z,73.04
2023-02-19T01:30:42.103Z,73.14
2023-02-19T01:33:47.031Z,73.14
2023-02-19T01:36:50.300Z,73.14
2023-02-19T01:39:53.687Z,73.15
2023-02-19T01:42:57.009Z,73.13
2023-02-19T01:46:00.859Z,73.24
2023-02-19T01:49:21.543Z,73.42
2023-02-19T01:52:32.740Z,73.31
2023-02-19T01:55:36.353Z,73.28
2023-02-19T01:58:40.393Z,73.46
2023-02-19T02:01:43.813Z,73.47
2023-02-19T02:04:47.499Z,73.43
2023-02-19T02:08:10.779Z,73.40
2023-02-19T02:11:14.272Z,73.36
2023-02-19T02:14:19.725Z,73.61
2023-02-19T02:17:36.744Z,73.51
2023-02-19T02:20:52.207Z,73.62
2023-02-19T02:24:14.050Z,73.73
2023-02-19T02:27:27.585Z,73.81
2023-02-19T02:30:48.888Z,73.89
2023-02-19T02:34:07.291Z,73.87
2023-02-19T02:37:12.276Z,73.92
2023-02-19T02:40:17.915Z,73.99
2023-02-19T02:43:21.392Z,74.01
2023-02-19T02:46:30.424Z,74.07
2023-02-19T02:49:55.673Z,73.82
2023-02-19T02:53:26.922Z,74.09
2023-02-19T02:56:31.662Z,73.97
2023-02-19T02:59:39.427Z,73.88
2023-02-19T03:02:44.018Z,74.11
2023-02-19T03:05:52.777Z,74.04
2023-02-19T03:09:19.357Z,74.19
2023-02-19T03:12:42.508Z,74.13
2023-02-19T03:16:10.250Z,73.95
2023-02-19T03:19:19.206Z,74.08
2023-02-19T03:22:27.708Z,74.02
2023-02-19T03:25:52.494Z,74.07
2023-02-19T03:29:22.628Z,73.98
2023-02-19T03:32:34.529Z,74.06
2023-02-19T03:35:44.925Z,74.05
2023-02-19T03:38:59.514Z,74.07
2023-02-19T03:42:18.062Z,74.04
2023-02-19T03:45:32.101Z,74.18
2023-02-19T03:48:38.348Z,74.03
2023-02-19T03:51:50.553Z,74.11
2023-02-19T03:55:02.845Z,74.01
2023-02-19T03:58:35.319Z,74.03
2023-02-19T04:01:43.427Z,74.11
2023-02-19T04:05:07.518Z,74.06
2023-02-19T04:08:16.151Z,74.20
2023-02-19T04:11:24.610Z,74.09
2023-02-19T04:14:34.904Z,74.34
2023-02-19T04:17:47.824Z,74.32
2023-02-19T04:20:51.644Z,74.35
2023-02-19T04:23:58.580Z,74.30
2023-02-19T04:27:02.788Z,74.38
2023-02-19T04:30:08.537Z,74.32
2023-02-19T04:33:11.773Z,74.40
2023-02-19T04:36:14.922Z,74.26
2023-02-19T04:39:18.155Z,74.36
2023-02-19T04:42:21.344Z,74.40
2023-02-19T04:45:24.562Z,74.40
2023-02-19T04:48:28.296Z,74.51
2023-02-19T04:51:31.480Z,74.49
2023-02-19T04:54:34.807Z,74.56
2023-02-19T04:57:38.025Z,74.49
2023-02-19T05:00:41.370Z,74.48
2023-02-19T05:03:44.851Z,74.50
2023-02-19T05:06:48.095Z,74.52
2023-02-19T05:09:51.323Z,74.55
2023-02-19T05:12:57.803Z,74.58
2023-02-19T05:16:07.422Z,74.74
2023-02-19T05:19:13.656Z,74.47
2023-02-19T05:22:17.191Z,74.48
2023-02-19T05:25:20.445Z,74.50
2023-02-19T05:28:28.846Z,74.58
2023-02-19T05:31:33.891Z,74.59
2023-02-19T05:34:37.323Z,74.53
2023-02-19T05:37:40.491Z,74.51
2023-02-19T05:40:44.809Z,74.60
2023-02-19T05:43:49.340Z,74.61
2023-02-19T05:46:52.539Z,74.65
2023-02-19T05:49:55.838Z,74.71
2023-02-19T05:53:05.713Z,74.63
2023-02-19T05:56:30.876Z,74.66
2023-02-19T05:59:34.061Z,74.72
2023-02-19T06:02:37.934Z,74.75
2023-02-19T06:05:41.234Z,74.82
2023-02-19T06:08:44.840Z,74.79
2023-02-19T06:11:48.049Z,74.98
2023-02-19T06:14:51.542Z,74.96
2023-02-19T06:17:55.007Z,75.02
2023-02-19T06:21:05.909Z,75.19
2023-02-19T06:24:10.002Z,75.02
2023-02-19T06:27:13.283Z,75.21
2023-02-19T06:30:16.631Z,75.26
2023-02-19T06:33:19.839Z,75.08
2023-02-19T06:36:23.851Z,75.24
2023-02-19T06:39:27.846Z,75.05
2023-02-19T06:42:33.880Z,75.23
2023-02-19T06:45:37.189Z,75.25
2023-02-19T06:48:41.657Z,75.20
2023-02-19T06:51:44.855Z,75.39
2023-02-19T06:54:48.041Z,75.31
2023-02-19T06:57:51.225Z,75.38
2023-02-19T07:00:54.764Z,75.33
2023-02-19T07:03:58.364Z,75.35
2023-02-19T07:07:01.562Z,75.37
2023-02-19T07:10:05.132Z,75.44
2023-02-19T07:13:08.311Z,75.31
2023-02-19T07:16:13.314Z,75.30
2023-02-19T07:19:16.853Z,75.26
2023-02-19T07:22:20.110Z,75.42
2023-02-19T07:25:23.318Z,75.46
2023-02-19T07:28:26.622Z,75.75
2023-02-19T07:31:30.053Z,75.84
2023-02-19T07:34:33.326Z,75.67
2023-02-19T07:37:36.575Z,75.94
2023-02-19T07:40:39.806Z,76.02
2023-02-19T07:43:43.221Z,76.00
2023-02-19T07:46:46.476Z,76.02
2023-02-19T07:49:49.662Z,75.87
2023-02-19T07:52:52.831Z,75.93
2023-02-19T07:56:06.927Z,76.07
2023-02-19T07:59:10.785Z,76.10
2023-02-19T08:02:37.372Z,76.02
2023-02-19T08:05:42.289Z,76.08
2023-02-19T08:08:45.559Z,76.03
2023-02-19T08:12:07.388Z,75.97
2023-02-19T08:15:10.603Z,75.98
2023-02-19T08:18:16.516Z,76.02
2023-02-19T08:21:20.700Z,75.91
2023-02-19T08:24:24.438Z,75.84
2023-02-19T08:27:27.732Z,75.86
2023-02-19T08:30:32.386Z,75.75
2023-02-19T08:33:36.759Z,75.87
2023-02-19T08:36:40.267Z,75.88
2023-02-19T08:39:43.597Z,75.76
2023-02-19T08:42:46.924Z,75.78
2023-02-19T08:45:54.614Z,75.71
2023-02-19T08:48:58.350Z,75.73
2023-02-19T08:52:01.907Z,75.66
2023-02-19T08:55:06.286Z,75.67
2023-02-19T08:58:11.620Z,75.72
2023-02-19T09:01:18.837Z,75.76
2023-02-19T09:04:22.463Z,75.84
2023-02-19T09:07:26.020Z,75.90
2023-02-19T09:10:29.262Z,75.79
2023-02-19T09:13:32.688Z,75.70
2023-02-19T09:16:37.101Z,75.87
2023-02-19T09:19:40.334Z,75.48
2023-02-19T09:22:43.571Z,75.75
2023-02-19T09:25:47.143Z,75.93
2023-02-19T09:28:50.722Z,75.60
2023-02-19T09:32:01.040Z,75.36
2023-02-19T09:36:05.867Z,75.30
2023-02-19T09:39:10.491Z,74.93
2023-02-19T09:42:24.804Z,74.42
2023-02-19T09:45:28.168Z,74.29
2023-02-19T09:48:32.268Z,74.12
2023-02-19T09:51:38.009Z,74.16
2023-02-19T09:54:41.951Z,74.22
2023-02-19T09:57:46.692Z,74.05
2023-02-19T10:00:51.152Z,73.78
2023-02-19T10:03:54.930Z,73.86
2023-02-19T10:07:03.520Z,73.80
2023-02-19T10:10:29.067Z,73.67
2023-02-19T10:13:37.750Z,73.69
2023-02-19T10:16:43.879Z,73.64
2023-02-19T10:19:47.159Z,73.81
2023-02-19T10:23:04.188Z,73.78
2023-02-19T10:26:07.397Z,73.57
2023-02-19T10:29:11.271Z,73.53
2023-02-19T10:32:24.048Z,73.52
2023-02-19T10:35:28.011Z,73.03
2023-02-19T10:38:40.661Z,72.88
2023-02-19T10:41:44.411Z,73.17
2023-02-19T10:44:53.868Z,72.64
2023-02-19T10:47:57.805Z,72.67
2023-02-19T10:51:08.643Z,72.68
2023-02-19T10:54:19.231Z,72.48
2023-02-19T10:57:34.036Z,72.35
2023-02-19T11:00:38.398Z,72.33
2023-02-19T11:03:42.148Z,72.30
2023-02-19T11:06:46.960Z,72.23
2023-02-19T11:09:53.782Z,72.12
2023-02-19T11:13:01.334Z,72.45
2023-02-19T11:16:05.499Z,72.30
2023-02-19T11:19:44.460Z,72.30
2023-02-19T11:22:49.368Z,72.14
2023-02-19T11:25:54.429Z,71.95
2023-02-19T11:28:59.969Z,72.18
2023-02-19T11:32:25.708Z,72.03
2023-02-19T11:35:29.973Z,72.05
2023-02-19T11:38:33.438Z,71.90
2023-02-19T11:41:47.639Z,72.00
2023-02-19T11:45:26.489Z,71.94
2023-02-19T11:48:38.740Z,71.89
2023-02-19T11:52:26.061Z,71.61
2023-02-19T11:56:16.843Z,71.51
2023-02-19T11:59:31.509Z,71.43
2023-02-19T12:02:46.112Z,71.04
2023-02-19T12:06:11.126Z,71.35
2023-02-19T12:09:24.313Z,71.49
2023-02-19T12:12:42.536Z,71.40
2023-02-19T12:16:00.922Z,71.34
2023-02-19T12:19:08.273Z,73.61
2023-02-19T12:22:22.266Z,72.61
2023-02-19T12:25:36.255Z,71.89
2023-02-19T12:28:45.271Z,71.59
2023-02-19T12:32:00.717Z,71.59
2023-02-19T12:35:15.836Z,71.24
2023-02-19T12:38:33.691Z,71.26
2023-02-19T12:42:06.300Z,71.12
2023-02-19T12:45:24.851Z,71.03
2023-02-19T12:48:39.818Z,71.05
2023-02-19T12:51:49.777Z,71.00
2023-02-19T12:54:56.354Z,71.13
2023-02-19T12:58:04.531Z,70.85
2023-02-19T13:01:18.910Z,70.75
2023-02-19T13:04:25.563Z,70.45
2023-02-19T13:07:39.408Z,70.46
2023-02-19T13:10:56.847Z,70.36
2023-02-19T13:14:26.424Z,70.20
2023-02-19T13:17:42.776Z,70.24
2023-02-19T13:20:48.823Z,70.11
2023-02-19T13:23:58.520Z,69.95
2023-02-19T13:27:23.956Z,69.96
2023-02-19T13:30:39.656Z,69.94
2023-02-19T13:34:05.918Z,69.73
2023-02-19T13:37:11.508Z,69.71
2023-02-19T13:40:35.616Z,69.39
2023-02-19T13:43:39.171Z,69.66
2023-02-19T13:46:45.456Z,69.44
2023-02-19T13:49:49.579Z,69.82
2023-02-19T13:52:55.070Z,69.56
2023-02-19T13:55:58.269Z,69.53
2023-02-19T13:59:25.594Z,69.50
2023-02-19T14:02:35.505Z,69.29
2023-02-19T14:06:04.404Z,69.19
2023-02-19T14:09:36.258Z,69.16
2023-02-19T14:12:39.583Z,69.12
2023-02-19T14:15:49.421Z,69.14
2023-02-19T14:18:52.896Z,69.04
2023-02-19T14:21:56.129Z,69.30
2023-02-19T14:25:00.653Z,69.24
2023-02-19T14:28:06.946Z,69.03
2023-02-19T14:31:19.650Z,69.22
2023-02-19T14:34:26.944Z,69.09
2023-02-19T14:37:30.354Z,69.14
2023-02-19T14:40:44.327Z,68.99
2023-02-19T14:43:50.925Z,69.17
2023-02-19T14:47:06.534Z,69.26
2023-02-19T14:50:29.519Z,68.75
2023-02-19T14:53:38.981Z,68.85
2023-02-19T14:56:46.860Z,68.50
2023-02-19T14:59:55.806Z,68.86
2023-02-19T15:02:59.874Z,68.99
2023-02-19T15:06:11.556Z,68.68
2023-02-19T15:09:16.551Z,68.19
2023-02-19T15:12:25.645Z,67.99
2023-02-19T15:15:32.697Z,68.28
2023-02-19T15:18:38.039Z,67.75
2023-02-19T15:21:46.726Z,67.94
2023-02-19T15:24:50.057Z,68.03
2023-02-19T15:27:53.316Z,67.90
2023-02-19T15:30:59.698Z,67.42
2023-02-19T15:34:02.987Z,67.66
2023-02-19T15:37:11.190Z,67.44
2023-02-19T15:40:15.484Z,67.48
2023-02-19T15:43:26.946Z,67.53
2023-02-19T15:46:31.020Z,67.34
2023-02-19T15:49:54.854Z,67.35
2023-02-19T15:53:12.736Z,67.21
2023-02-19T15:56:29.485Z,67.00
2023-02-19T15:59:36.785Z,67.15
2023-02-19T16:02:40.770Z,67.19
2023-02-19T16:05:44.222Z,67.18
2023-02-19T16:09:04.293Z,67.04
2023-02-19T16:12:23.147Z,67.13
2023-02-19T16:15:28.726Z,67.25
2023-02-19T16:18:32.469Z,67.00
2023-02-19T16:21:36.189Z,67.15
2023-02-19T16:24:45.454Z,66.87
2023-02-19T16:27:48.946Z,66.69
2023-02-19T16:30:58.324Z,66.52
2023-02-19T16:34:17.787Z,66.60
2023-02-19T16:37:41.889Z,66.36
2023-02-19T16:40:48.991Z,67.05
2023-02-19T16:43:52.176Z,67.01
2023-02-19T16:47:01.667Z,66.65
2023-02-19T16:50:41.746Z,66.57
2023-02-19T16:54:01.772Z,66.40
2023-02-19T16:57:46.020Z,66.21
2023-02-19T17:15:29.673Z,65.82
2023-02-19T17:18:39.296Z,65.84
2023-02-19T17:21:43.124Z,65.51
2023-02-19T17:24:47.475Z,65.43
2023-02-19T17:27:50.671Z,65.48
2023-02-19T17:30:54.245Z,65.49
2023-02-19T17:33:57.546Z,65.30
2023-02-19T17:37:00.819Z,65.54
2023-02-19T17:40:04.301Z,65.43
2023-02-19T17:43:08.092Z,65.33
2023-02-19T17:46:15.972Z,65.02
2023-02-19T17:49:19.740Z,65.22
2023-02-19T17:52:23.031Z,65.07
2023-02-19T17:55:29.668Z,64.86
2023-02-19T17:58:32.948Z,65.03
2023-02-19T18:01:36.358Z,64.88
2023-02-19T18:04:41.182Z,64.91
2023-02-19T18:07:45.826Z,64.83
2023-02-19T18:10:49.082Z,64.86
2023-02-19T18:13:52.675Z,64.73
2023-02-19T18:16:56.170Z,65.03
2023-02-19T18:20:44.989Z,65.29
2023-02-19T18:23:48.293Z,64.94
2023-02-19T18:26:51.484Z,64.76
2023-02-19T18:29:56.380Z,64.35
2023-02-19T18:32:59.569Z,64.31
2023-02-19T18:36:03.751Z,64.25
2023-02-19T18:39:07.136Z,64.26
2023-02-19T18:42:12.589Z,63.83
2023-02-19T18:45:17.066Z,63.83
2023-02-19T18:48:21.480Z,63.99
2023-02-19T18:51:35.651Z,63.79
2023-02-19T18:54:39.690Z,63.70
2023-02-19T18:57:44.131Z,63.56
2023-02-19T19:00:47.331Z,63.74
2023-02-19T19:03:50.658Z,63.77
2023-02-19T19:06:53.934Z,63.90
2023-02-19T19:10:08.100Z,63.60
2023-02-19T19:13:11.454Z,63.37
2023-02-19T19:16:26.690Z,63.51
2023-02-19T19:19:29.952Z,63.29
2023-02-19T19:22:50.430Z,63.34
2023-02-19T19:26:07.652Z,63.45
2023-02-19T19:29:12.148Z,63.16
2023-02-19T19:32:15.770Z,63.43
2023-02-19T19:35:20.145Z,63.47
2023-02-19T19:38:23.745Z,63.20
2023-02-19T19:41:26.971Z,63.28
2023-02-19T19:44:30.269Z,63.17
2023-02-19T19:47:33.557Z,63.29
2023-02-19T19:50:36.755Z,63.54
2023-02-19T19:53:40.143Z,63.41
2023-02-19T19:56:45.850Z,63.43
2023-02-19T19:59:51.281Z,63.47
2023-02-19T20:02:54.587Z,63.37
2023-02-19T20:05:58.165Z,63.39
2023-02-19T20:09:01.513Z,63.37
2023-02-19T20:12:05.257Z,63.70
2023-02-19T20:15:09.736Z,63.57
2023-02-19T20:18:13.121Z,63.39
2023-02-19T20:21:16.363Z,63.68
2023-02-19T20:24:26.039Z,63.83
2023-02-19T20:27:29.398Z,63.61
2023-02-19T20:36:58.759Z,63.33
2023-02-19T20:43:31.499Z,63.26
2023-02-19T20:47:18.452Z,63.14
2023-02-19T20:55:35.844Z,63.25
2023-02-19T20:59:19.915Z,63.59
2023-02-19T21:08:22.458Z,63.38
2023-02-19T21:11:29.571Z,63.41
2023-02-19T21:19:10.442Z,63.22
2023-02-19T21:22:35.460Z,63.10
2023-02-19T21:29:59.415Z,63.22
2023-02-19T21:39:03.123Z,63.23
2023-02-19T21:42:06.756Z,63.38
2023-02-19T21:45:10.327Z,63.06
2023-02-19T21:48:13.976Z,63.28
2023-02-19T21:51:19.141Z,63.49
2023-02-19T21:54:24.954Z,63.28
2023-02-19T21:57:28.342Z,63.32
2023-02-19T22:00:31.996Z,63.20
2023-02-19T22:03:35.297Z,63.16
2023-02-19T22:06:41.514Z,63.40
2023-02-19T22:09:44.800Z,63.46
2023-02-19T22:12:48.150Z,63.41
2023-02-19T22:15:51.394Z,63.42
2023-02-19T22:18:59.482Z,63.19
2023-02-19T22:22:03.152Z,63.34
2023-02-19T22:25:06.950Z,63.38
2023-02-19T22:28:10.425Z,63.49
2023-02-19T22:31:15.788Z,63.30
2023-02-19T22:34:19.142Z,63.24
2023-02-19T22:37:22.517Z,63.30
2023-02-19T22:40:25.834Z,63.17
2023-02-19T22:43:29.112Z,63.53
2023-02-19T22:46:32.360Z,63.58
2023-02-19T22:49:38.710Z,63.07
2023-02-19T22:52:42.233Z,63.42
2023-02-19T22:55:45.603Z,63.27
2023-02-19T22:58:48.963Z,63.27
2023-02-19T23:01:53.226Z,63.49
2023-02-19T23:04:56.652Z,63.28
2023-02-19T23:08:00.128Z,63.52
2023-02-19T23:11:03.385Z,63.54
2023-02-19T23:14:08.023Z,63.46
2023-02-19T23:17:11.501Z,63.79
2023-02-19T23:20:14.820Z,63.73
2023-02-19T23:23:18.157Z,63.52
2023-02-19T23:26:21.509Z,63.69
2023-02-19T23:29:27.119Z,63.52
2023-02-19T23:32:30.397Z,63.45
2023-02-19T23:35:33.679Z,63.68
2023-02-19T23:38:37.177Z,63.50
2023-02-19T23:41:46.452Z,63.73
2023-02-19T23:44:49.786Z,63.80
2023-02-19T23:47:53.155Z,63.56
2023-02-19T23:50:56.421Z,63.64
2023-02-19T23:53:59.881Z,63.64
2023-02-19T23:57:03.235Z,63.47
